FW6277 Weather Reports


Display with metric or nautical units.
time (UTC)temp
F
wind
direction
speed
MPH
gust
MPH
rain 1hr
in
rain 24hr
in
rain mn
in
humidity
%
barometer
mb
20210301130538 44 0 0.0 1.0 0.02 0.89 0.13 98 1006.6
20210301130109 44 0 0.0 1.0 0.02 0.89 0.13 98 1006.7
20210301125530 44 0 0.0 2.0 0.02 0.91 0.13 98 1006.6
20210301125258 44 0 0.0 2.0 0.02 0.91 0.13 98 1006.7
20210301124558 44 0 0.0 1.0 0.02 0.91 0.13 98 1006.6
20210301124044 44 0 0.0 1.0 0.02 0.91 0.13 98 1006.8
20210301123529 44 0 0.0 1.0 0.02 0.91 0.13 98 1006.9
20210301123121 44 0 0.0 1.0 0.03 0.91 0.13 98 1006.8
20210301122711 44 0 0.0 1.0 0.03 0.91 0.13 98 1006.4
20210301122042 44 0 0.0 1.0 0.02 0.90 0.12 98 1006.2
20210301121630 44 0 0.0 1.0 0.02 0.90 0.12 98 1006.4
20210301121051 43 0 0.0 0.0 0.03 0.90 0.12 98 1006.4
20210301120549 43 0 0.0 0.0 0.02 0.89 0.11 98 1006.7
20210301120112 43 0 0.0 1.0 0.03 0.89 0.11 98 1006.8
20210301115538 43 0 0.0 1.0 0.03 0.91 0.11 98 1006.7
20210301115034 43 0 0.0 0.0 0.04 0.91 0.11 98 1006.8
20210301114552 43 0 0.0 0.0 0.04 0.91 0.11 98 1006.7
20210301114040 43 0 0.0 0.0 0.04 0.91 0.11 98 1006.8
20210301113534 43 0 0.0 0.0 0.05 0.91 0.11 98 1006.8
20210301113125 43 0 0.0 0.0 0.04 0.90 0.10 98 1007.0
20210301112828 43 0 0.0 0.0 0.04 0.90 0.10 98 1007.1
20210301112057 43 0 0.0 0.0 0.04 0.90 0.10 98 1007.0
20210301111658 43 0 0.0 0.0 0.04 0.90 0.10 98 1007.0
20210301111047 43 0 0.0 0.0 0.04 0.89 0.09 98 1007.0
20210301110542 43 0 0.0 0.0 0.04 0.89 0.09 98 1007.1
20210301110054 43 0 0.0 0.0 0.03 0.88 0.08 98 1007.2
20210301105537 43 0 0.0 1.0 0.02 0.87 0.07 98 1007.2
20210301105129 43 0 0.0 1.0 0.02 0.87 0.07 98 1007.3
20210301104612 43 0 0.0 1.0 0.03 0.87 0.07 98 1007.3
20210301104030 43 0 0.0 1.0 0.03 0.87 0.07 98 1007.3
20210301103532 43 0 0.0 1.0 0.02 0.86 0.06 98 1007.5
20210301103128 43 0 0.0 1.0 0.02 0.86 0.06 98 1007.5
20210301102651 43 0 0.0 1.0 0.02 0.86 0.06 98 1007.5
20210301102031 43 0 0.0 0.0 0.03 0.86 0.06 98 1007.5
20210301101630 43 0 0.0 1.0 0.03 0.86 0.06 98 1007.5
20210301101039 43 0 0.0 1.0 0.02 0.85 0.05 98 1007.4
20210301100536 43 0 0.0 0.0 0.02 0.85 0.05 98 1007.4
20210301100051 43 0 0.0 0.0 0.02 0.85 0.05 98 1007.3
20210301095533 43 0 0.0 1.0 0.02 0.85 0.05 97 1007.3
20210301095049 43 0 0.0 1.0 0.02 0.85 0.05 98 1007.2
20210301094546 43 0 0.0 0.0 0.01 0.84 0.04 98 1007.3
20210301094040 43 0 0.0 1.0 0.02 0.84 0.04 98 1007.3
20210301093536 43 0 0.0 1.0 0.02 0.84 0.04 97 1007.1
20210301093052 43 0 0.0 1.0 0.02 0.84 0.04 98 1007.4
20210301092726 43 0 0.0 1.0 0.03 0.84 0.04 97 1007.6
20210301092037 43 0 0.0 1.0 0.02 0.83 0.03 98 1007.5
20210301091757 43 0 0.0 1.0 0.02 0.83 0.03 97 1007.6
20210301091029 43 0 0.0 1.0 0.02 0.83 0.03 97 1007.6
20210301090536 43 0 0.0 1.0 0.02 0.83 0.03 97 1007.6
20210301090129 43 0 0.0 1.0 0.02 0.83 0.03 98 1007.7
20210301085530 43 0 0.0 1.0 0.02 0.83 0.03 97 1007.7
20210301085035 43 0 0.0 1.0 0.02 0.83 0.03 97 1007.6
20210301084555 43 0 0.0 1.0 0.02 0.83 0.03 97 1007.5
20210301084040 43 0 0.0 1.0 0.01 0.82 0.02 97 1007.3
20210301083534 43 0 0.0 1.0 0.01 0.82 0.02 97 1007.3
20210301083108 43 0 0.0 1.0 0.01 0.82 0.02 97 1007.1
20210301082736 43 0 0.0 1.0 0.00 0.81 0.01 97 1006.8
20210301082058 43 0 0.0 1.0 0.00 0.81 0.01 97 1006.8
20210301081559 43 0 0.0 1.0 0.00 0.81 0.01 97 1006.9
20210301081033 43 0 0.0 1.0 0.00 0.81 0.01 98 1007.3
20210301080537 43 0 0.0 1.0 0.00 0.81 0.01 97 1007.4
20210301080118 43 0 0.0 1.0 0.00 0.81 0.01 97 1007.4
20210301075530 43 0 0.0 2.0 0.00 0.81 0.01 97 1007.8
20210301075033 43 0 0.0 2.0 0.00 0.81 0.01 97 1007.9
20210301074547 43 0 0.0 1.0 0.00 0.81 0.01 97 1008.0
20210301074050 43 0 0.0 1.0 0.00 0.81 0.01 97 1008.0
20210301073537 43 0 0.0 1.0 0.00 0.81 0.01 97 1008.3
20210301073119 43 0 0.0 1.0 0.00 0.81 0.01 97 1008.7
20210301072629 43 0 0.0 1.0 0.00 0.81 0.01 97 1009.1
20210301072030 43 0 0.0 1.0 0.00 0.81 0.01 97 1009.2
20210301071639 43 0 0.0 1.0 0.00 0.81 0.01 97 1009.4
20210301071035 43 42 0.0 1.0 0.00 0.81 0.01 98 1009.4
20210301070529 43 0 0.0 1.0 0.00 0.81 0.01 98 1009.3
20210301070100 43 0 0.0 1.0 0.00 0.81 0.01 97 1009.3
20210301065551 43 0 0.0 2.0 0.00 0.81 0.01 97 1009.1
20210301065032 43 0 0.0 2.0 0.00 0.81 0.01 98 1009.5
20210301064650 43 352 0.0 1.0 0.00 0.81 0.01 97 1009.6
20210301064031 43 0 0.0 2.0 0.00 0.81 0.01 97 1009.7
20210301063537 43 0 0.0 2.0 0.00 0.81 0.01 97 1009.8
20210301063110 43 47 0.0 3.0 0.00 0.81 0.01 97 1010.0
20210301062627 43 296 1.0 3.0 0.00 0.81 0.01 98 1010.3
20210301062038 43 71 0.0 2.0 0.00 0.81 0.01 98 1010.2
20210301061636 43 0 0.0 2.0 0.00 0.81 0.01 97 1009.7
20210301061028 43 71 0.0 2.0 0.00 0.81 0.01 97 1009.9
20210301060534 43 138 0.0 2.0 0.00 0.81 0.01 97 1010.1
20210301060110 43 0 0.0 1.0 0.01 0.81 0.01 98 1010.8
20210301055534 43 0 0.0 2.0 0.01 0.81 0.01 98 1011.1
20210301055036 43 0 0.0 2.0 0.02 0.81 0.01 98 1010.8
20210301054551 43 0 0.0 1.0 0.02 0.81 0.01 98 1011.0
20210301054031 43 0 0.0 1.0 0.03 0.81 0.01 98 1010.6
20210301053537 43 0 0.0 1.0 0.04 0.81 0.01 98 1010.6
20210301053121 43 0 0.0 1.0 0.05 0.81 0.01 98 1010.5
20210301052702 43 0 0.0 1.0 0.05 0.81 0.01 98 1010.7
20210301052028 43 0 0.0 1.0 0.06 0.81 0.01 98 1010.3
20210301051547 42 0 0.0 1.0 0.10 0.81 0.01 98 1010.0
20210301051047 42 0 0.0 1.0 0.11 0.81 0.01 97 1009.9
20210301050541 42 0 0.0 1.0 0.11 0.81 0.01 98 1009.9
20210301050118 42 0 0.0 1.0 0.11 0.80 0.00 97 1010.1
20210301045531 42 0 0.0 1.0 0.11 0.80 0.80 97 1010.2
20210301045323 42 0 0.0 1.0 0.11 0.79 0.79 97 1010.3
20210301044601 42 0 0.0 0.0 0.11 0.79 0.79 97 1010.6
20210301044035 42 0 0.0 0.0 0.11 0.78 0.78 97 1010.9
20210301043536 42 0 0.0 0.0 0.10 0.77 0.77 97 1011.1
20210301043100 42 0 0.0 0.0 0.09 0.76 0.76 97 1011.2
20210301042626 42 0 0.0 1.0 0.09 0.76 0.76 97 1011.4
20210301042037 42 0 0.0 1.0 0.08 0.75 0.75 97 1011.5
20210301041558 42 0 0.0 0.0 0.04 0.71 0.71 97 1011.9
20210301041029 42 0 0.0 0.0 0.03 0.70 0.70 97 1012.0
20210301040546 42 0 0.0 1.0 0.03 0.70 0.70 97 1012.1
20210301040122 42 0 0.0 1.0 0.02 0.69 0.69 97 1012.2
20210301035534 42 0 0.0 1.0 0.01 0.68 0.68 97 1012.3
20210301035346 42 0 0.0 1.0 0.01 0.68 0.68 97 1012.5
20210301034548 42 0 0.0 0.0 0.01 0.68 0.68 97 1012.8
20210301034057 42 0 0.0 0.0 0.01 0.67 0.67 97 1012.8
20210301033547 42 0 0.0 0.0 0.01 0.67 0.67 97 1012.5
20210301033132 42 0 0.0 0.0 0.01 0.67 0.67 97 1012.4
20210301032633 42 0 0.0 0.0 0.01 0.67 0.67 97 1012.3
20210301032030 42 0 0.0 1.0 0.01 0.67 0.67 97 1012.3
20210301031610 42 0 0.0 1.0 0.01 0.67 0.67 97 1012.5
20210301031048 42 0 0.0 1.0 0.01 0.67 0.67 97 1012.3
20210301030536 42 0 0.0 1.0 0.01 0.67 0.67 97 1012.8
20210301030126 42 0 0.0 1.0 0.01 0.67 0.67 97 1013.0
20210301025531 42 0 0.0 2.0 0.01 0.67 0.67 97 1013.2
20210301025041 42 0 0.0 2.0 0.01 0.67 0.67 97 1013.0
20210301024544 42 0 0.0 2.0 0.01 0.67 0.67 97 1013.0
20210301024038 42 0 0.0 1.0 0.00 0.66 0.66 97 1013.1
20210301023554 42 0 0.0 2.0 0.00 0.66 0.66 97 1013.1
20210301023127 42 0 0.0 2.0 0.00 0.66 0.66 97 1013.1
20210301022725 42 0 0.0 2.0 0.00 0.66 0.66 97 1013.2
20210301022030 42 13 0.0 2.0 0.00 0.66 0.66 97 1013.1
20210301021607 42 13 0.0 2.0 0.00 0.66 0.66 97 1013.0
20210301021039 42 13 0.0 2.0 0.00 0.66 0.66 97 1013.2
20210301020531 42 0 0.0 2.0 0.00 0.66 0.66 97 1013.5
20210301020055 42 0 0.0 0.0 0.00 0.66 0.66 97 1013.6
20210301015538 42 0 0.0 1.0 0.00 0.66 0.66 97 1013.2
20210301015036 42 0 0.0 1.0 0.00 0.66 0.66 97 1013.4
20210301014604 42 0 0.0 1.0 0.00 0.66 0.66 97 1013.4
20210301014049 42 0 0.0 2.0 0.00 0.66 0.66 97 1013.4
20210301013531 42 0 0.0 2.0 0.00 0.66 0.66 97 1013.4
20210301013117 42 13 0.0 1.0 0.00 0.66 0.66 97 1013.6
20210301012650 42 0 0.0 1.0 0.00 0.66 0.66 97 1013.2
20210301012033 42 0 0.0 1.0 0.00 0.66 0.66 97 1013.3
20210301011621 42 0 0.0 0.0 0.00 0.66 0.66 97 1013.6
20210301011030 42 0 0.0 0.0 0.00 0.66 0.66 97 1013.9
20210301010610 42 0 0.0 1.0 0.00 0.66 0.66 97 1014.1
20210301010137 42 0 0.0 1.0 0.00 0.66 0.66 97 1014.1
20210301005534 42 0 0.0 1.0 0.00 0.66 0.66 97 1014.1
20210301005341 42 0 0.0 1.0 0.00 0.66 0.66 97 1014.0
20210301004620 42 0 0.0 1.0 0.00 0.66 0.66 97 1014.0
20210301004036 42 0 0.0 1.0 0.00 0.66 0.66 97 1014.2
20210301003537 42 0 0.0 1.0 0.00 0.66 0.66 97 1014.2
20210301003100 42 0 0.0 0.0 0.00 0.66 0.66 97 1014.3
20210301002708 42 0 0.0 1.0 0.00 0.66 0.66 97 1014.4
20210301002040 42 0 0.0 1.0 0.00 0.66 0.66 97 1014.7
20210301001613 42 0 0.0 1.0 0.00 0.66 0.66 97 1015.1
20210301001044 42 0 0.0 1.0 0.00 0.66 0.66 97 1015.1
20210301000531 42 0 0.0 1.0 0.00 0.66 0.66 97 1015.1
20210301000112 42 0 0.0 1.0 0.00 0.66 0.66 97 1015.2
20210228235543 42 0 0.0 1.0 0.00 0.66 0.66 97 1015.2
20210228235229 42 0 0.0 1.0 0.00 0.66 0.66 97 1015.3
20210228234639 42 0 0.0 0.0 0.00 0.66 0.66 97 1015.2
20210228234040 42 0 0.0 0.0 0.00 0.66 0.66 97 1015.0
20210228233530 42 0 0.0 1.0 0.00 0.66 0.66 97 1015.5
20210228233129 42 0 0.0 1.0 0.00 0.66 0.66 97 1015.5
20210228232706 42 0 0.0 1.0 0.00 0.66 0.66 97 1015.6
20210228232042 42 0 0.0 1.0 0.00 0.66 0.66 97 1015.7
20210228231600 42 0 0.0 1.0 0.00 0.66 0.66 97 1015.6
20210228231039 42 0 0.0 1.0 0.00 0.66 0.66 96 1015.5
20210228230536 42 0 0.0 2.0 0.00 0.66 0.66 96 1015.6
20210228230051 42 0 0.0 2.0 0.01 0.66 0.66 96 1015.8
20210228225534 42 0 0.0 2.0 0.01 0.66 0.66 96 1015.9
20210228225143 42 0 0.0 2.0 0.01 0.66 0.66 96 1015.9
20210228224620 42 0 0.0 1.0 0.01 0.66 0.66 96 1016.2
20210228224047 42 0 0.0 1.0 0.01 0.66 0.66 96 1016.2
20210228223548 43 12 0.0 3.0 0.01 0.66 0.66 96 1016.0
20210228223119 43 0 0.0 3.0 0.01 0.66 0.66 96 1016.2
20210228222600 43 19 0.0 3.0 0.02 0.66 0.66 96 1016.6
20210228222038 43 330 0.0 3.0 0.02 0.66 0.66 96 1016.5
20210228221545 43 0 0.0 1.0 0.02 0.66 0.66 96 1016.3
20210228221036 43 0 0.0 1.0 0.03 0.66 0.66 96 1016.4
20210228220539 43 0 0.0 1.0 0.04 0.66 0.66 96 1016.4
20210228220045 43 360 0.0 1.0 0.03 0.65 0.65 96 1016.5
20210228215530 43 0 0.0 3.0 0.04 0.65 0.65 96 1016.6
20210228215217 43 0 0.0 3.0 0.04 0.65 0.65 96 1016.4
20210228214629 43 90 0.0 2.0 0.04 0.65 0.65 96 1016.6
20210228214035 43 0 0.0 1.0 0.05 0.65 0.65 96 1016.8
20210228213531 43 0 0.0 1.0 0.05 0.65 0.65 96 1016.8
20210228213052 43 0 0.0 1.0 0.05 0.65 0.65 96 1016.8
20210228212630 43 0 0.0 2.0 0.05 0.64 0.64 96 1016.7
20210228212106 43 0 0.0 2.0 0.05 0.64 0.64 96 1016.8
20210228211633 43 0 0.0 2.0 0.05 0.64 0.64 96 1016.9
20210228211053 43 0 0.0 2.0 0.05 0.63 0.63 96 1017.2
20210228210532 43 0 0.0 2.0 0.04 0.62 0.62 96 1017.3
20210228210119 43 0 0.0 1.0 0.05 0.62 0.62 96 1017.5
20210228205543 43 0 0.0 2.0 0.04 0.61 0.61 96 1017.6
20210228205236 43 0 0.0 2.0 0.05 0.61 0.61 96 1017.7
20210228204539 43 0 0.0 2.0 0.05 0.61 0.61 96 1017.7
20210228204055 43 0 0.0 2.0 0.05 0.60 0.60 96 1017.6
20210228203613 43 0 0.0 1.0 0.05 0.60 0.60 96 1017.7
20210228203131 43 0 0.0 1.0 0.06 0.60 0.60 96 1017.7
20210228202643 43 0 0.0 1.0 0.06 0.58 0.58 96 1017.9
20210228202036 43 0 0.0 1.0 0.08 0.58 0.58 96 1018.0
20210228201637 43 5 0.0 1.0 0.10 0.58 0.58 96 1018.1
20210228201030 43 0 0.0 1.0 0.10 0.58 0.58 96 1018.0
20210228200537 43 0 0.0 1.0 0.11 0.58 0.58 96 1018.2
20210228200136 43 0 0.0 1.0 0.11 0.57 0.57 96 1018.2
20210228195541 43 0 0.0 2.0 0.12 0.57 0.57 96 1018.4
20210228195033 43 5 0.0 2.0 0.11 0.56 0.56 96 1018.5
20210228194549 44 0 0.0 1.0 0.11 0.55 0.55 96 1018.5
20210228194039 44 0 0.0 1.0 0.12 0.55 0.55 96 1018.4
20210228193535 44 0 0.0 3.0 0.13 0.55 0.55 96 1018.5
20210228193119 44 0 1.0 3.0 0.12 0.54 0.54 96 1018.6
20210228192740 44 0 0.0 2.0 0.11 0.52 0.52 96 1018.7
20210228192040 44 0 0.0 1.0 0.11 0.51 0.51 96 1018.8
20210228191557 44 0 0.0 2.0 0.09 0.49 0.49 96 1018.8
20210228191035 44 0 0.0 2.0 0.09 0.48 0.48 96 1018.6
20210228190531 44 0 0.0 2.0 0.08 0.47 0.47 96 1018.3
20210228190123 44 0 0.0 2.0 0.08 0.46 0.46 96 1018.5
20210228185544 44 116 0.0 2.0 0.07 0.45 0.45 96 1018.6
20210228185030 44 0 0.0 1.0 0.08 0.45 0.45 96 1018.6
20210228184642 44 0 0.0 2.0 0.08 0.44 0.44 96 1018.7
20210228184031 44 0 0.0 3.0 0.09 0.43 0.43 96 1018.8
20210228183540 44 0 0.0 3.0 0.10 0.42 0.42 96 1019.2
20210228183127 44 106 0.0 3.0 0.11 0.42 0.42 96 1019.0
20210228182641 44 107 0.0 3.0 0.11 0.41 0.41 96 1019.3
20210228182035 44 0 0.0 2.0 0.10 0.40 0.40 96 1019.1
20210228181611 44 0 0.0 3.0 0.11 0.40 0.40 96 1019.2
20210228181043 44 0 0.0 3.0 0.11 0.39 0.39 96 1019.5
20210228180541 44 56 1.0 3.0 0.12 0.39 0.39 96 1019.1
20210228180116 44 0 0.0 3.0 0.11 0.38 0.38 96 1019.8
20210228175535 45 352 0.0 3.0 0.12 0.38 0.38 96 1019.5
20210228175252 44 0 0.0 3.0 0.12 0.37 0.37 96 1019.8
20210228174611 45 148 0.0 2.0 0.11 0.35 0.35 96 1020.8
20210228174035 45 88 0.0 2.0 0.10 0.33 0.33 96 1020.6
20210228173534 45 88 0.0 1.0 0.11 0.32 0.32 96 1021.3
20210228173126 45 131 0.0 3.0 0.11 0.31 0.31 96 1021.4
20210228172646 45 0 0.0 3.0 0.11 0.30 0.30 96 1021.9
20210228172030 45 52 0.0 1.0 0.13 0.30 0.30 96 1021.8
20210228171610 45 0 0.0 1.0 0.12 0.29 0.29 96 1022.0
20210228171054 45 0 0.0 1.0 0.12 0.28 0.28 96 1022.2
20210228170534 45 0 0.0 1.0 0.12 0.27 0.27 96 1022.2
20210228170111 45 0 0.0 1.0 0.13 0.27 0.27 96 1022.3
20210228165545 45 52 0.0 1.0 0.13 0.26 0.26 96 1022.7
20210228165037 45 0 0.0 1.0 0.13 0.25 0.25 96 1023.1
20210228164533 45 0 0.0 1.0 0.13 0.24 0.24 96 1023.5
20210228164040 45 0 0.0 0.0 0.11 0.22 0.22 96 1023.5
20210228163540 45 0 0.0 1.0 0.11 0.21 0.21 96 1023.8
20210228163107 45 0 0.0 1.0 0.10 0.19 0.19 96 1023.5
20210228162800 45 0 0.0 1.0 0.09 0.18 0.18 96 1023.5
20210228162033 45 0 0.0 1.0 0.08 0.17 0.17 96 1023.2
20210228161554 45 0 0.0 1.0 0.09 0.17 0.17 96 1022.7
20210228161035 45 0 0.0 1.0 0.08 0.16 0.16 96 1022.5
20210228160541 45 0 0.0 2.0 0.07 0.15 0.15 96 1022.5
20210228160114 45 0 0.0 2.0 0.06 0.14 0.14 96 1022.3
20210228155535 45 0 0.0 1.0 0.05 0.13 0.13 96 1022.5
20210228155042 45 0 0.0 1.0 0.04 0.12 0.12 96 1022.7
20210228154611 45 0 0.0 1.0 0.03 0.11 0.11 96 1022.6
20210228154032 45 0 0.0 1.0 0.04 0.11 0.11 96 1022.4
20210228153530 45 0 0.0 1.0 0.03 0.10 0.10 96 1022.3
20210228153050 45 0 0.0 1.0 0.02 0.09 0.09 96 1022.2
20210228152833 45 0 0.0 2.0 0.02 0.09 0.09 96 1022.0
20210228152029 45 0 0.0 2.0 0.02 0.09 0.09 96 1022.1
20210228151611 45 0 0.0 2.0 0.01 0.08 0.08 96 1022.2
20210228151029 45 0 0.0 2.0 0.01 0.08 0.08 96 1022.5
20210228150529 45 0 0.0 2.0 0.02 0.08 0.08 96 1022.8
20210228150117 45 13 0.0 2.0 0.02 0.08 0.08 96 1022.7
20210228145542 45 78 0.0 2.0 0.02 0.08 0.08 96 1022.7
20210228145029 45 0 0.0 2.0 0.02 0.08 0.08 96 1022.8
20210228144551 45 317 0.0 2.0 0.03 0.08 0.08 96 1022.9
20210228144042 45 0 0.0 2.0 0.02 0.07 0.07 96 1022.8
20210228143532 45 0 0.0 3.0 0.02 0.07 0.07 96 1022.8
20210228143143 45 0 0.0 3.0 0.02 0.07 0.07 97 1023.0
20210228142749 45 272 0.0 2.0 0.02 0.07 0.07 97 1023.1
20210228142038 45 33 0.0 2.0 0.02 0.07 0.07 97 1023.1
20210228141624 45 0 0.0 1.0 0.03 0.07 0.07 97 1023.2
20210228141038 45 0 0.0 2.0 0.03 0.07 0.07 97 1023.1
20210228140533 45 0 0.0 3.0 0.02 0.06 0.06 97 1023.0
20210228140109 45 0 0.0 3.0 0.02 0.06 0.06 97 1023.1
20210228135534 45 0 0.0 1.0 0.03 0.08 0.06 97 1023.3
20210228135036 45 0 0.0 1.0 0.03 0.08 0.06 97 1023.4
20210228134544 45 0 0.0 1.0 0.02 0.07 0.05 97 1023.5
20210228134032 45 0 0.0 0.0 0.02 0.07 0.05 97 1023.7
20210228133541 44 0 0.0 0.0 0.02 0.07 0.05 97 1023.7
20210228133126 44 0 0.0 0.0 0.02 0.07 0.05 97 1023.8
20210228132645 44 0 0.0 0.0 0.02 0.07 0.05 97 1024.0
20210228132045 44 0 0.0 0.0 0.02 0.07 0.05 97 1024.1
20210228131548 44 0 0.0 0.0 0.01 0.06 0.04 97 1024.0
20210228131040 44 0 0.0 0.0 0.01 0.06 0.04 97 1023.8